sensor_id;sensor_type;location;lat;lon;timestamp;temperature;humidity
46336;DHT22;31365;48.858;8.530;2023-11-22T00:00:09;8.80;99.90
46336;DHT22;31365;48.858;8.530;2023-11-22T00:02:38;8.70;99.90
46336;DHT22;31365;48.858;8.530;2023-11-22T00:05:07;8.60;99.90
46336;DHT22;31365;48.858;8.530;2023-11-22T00:07:36;8.60;99.90
46336;DHT22;31365;48.858;8.530;2023-11-22T00:10:06;8.50;99.90
46336;DHT22;31365;48.858;8.530;2023-11-22T00:12:35;8.40;99.90
46336;DHT22;31365;48.858;8.530;2023-11-22T00:15:06;8.30;99.90
46336;DHT22;31365;48.858;8.530;2023-11-22T00:17:36;8.20;99.90
46336;DHT22;31365;48.858;8.530;2023-11-22T00:20:07;8.10;99.90
46336;DHT22;31365;48.858;8.530;2023-11-22T00:22:36;8.10;99.90
46336;DHT22;31365;48.858;8.530;2023-11-22T00:25:05;8.00;99.90
46336;DHT22;31365;48.858;8.530;2023-11-22T00:27:33;7.90;99.90
46336;DHT22;31365;48.858;8.530;2023-11-22T00:30:01;7.90;99.90
46336;DHT22;31365;48.858;8.530;2023-11-22T00:32:31;7.80;99.90
46336;DHT22;31365;48.858;8.530;2023-11-22T00:34:59;7.70;99.90
46336;DHT22;31365;48.858;8.530;2023-11-22T00:37:29;7.60;99.90
46336;DHT22;31365;48.858;8.530;2023-11-22T00:39:57;7.50;99.90
46336;DHT22;31365;48.858;8.530;2023-11-22T00:42:26;7.40;99.90
46336;DHT22;31365;48.858;8.530;2023-11-22T00:44:54;7.40;99.90
46336;DHT22;31365;48.858;8.530;2023-11-22T00:47:22;7.30;99.90
46336;DHT22;31365;48.858;8.530;2023-11-22T00:49:50;7.30;99.90
46336;DHT22;31365;48.858;8.530;2023-11-22T00:52:19;7.20;99.90
46336;DHT22;31365;48.858;8.530;2023-11-22T00:54:49;7.10;99.90
46336;DHT22;31365;48.858;8.530;2023-11-22T00:57:19;7.00;99.90
46336;DHT22;31365;48.858;8.530;2023-11-22T00:59:47;6.90;99.90
46336;DHT22;31365;48.858;8.530;2023-11-22T01:02:16;6.90;99.90
46336;DHT22;31365;48.858;8.530;2023-11-22T01:04:44;6.90;99.90
46336;DHT22;31365;48.858;8.530;2023-11-22T01:07:13;6.90;99.90
46336;DHT22;31365;48.858;8.530;2023-11-22T01:09:41;6.80;99.90
46336;DHT22;31365;48.858;8.530;2023-11-22T01:12:11;6.80;99.90
46336;DHT22;31365;48.858;8.530;2023-11-22T01:14:40;6.80;99.90
46336;DHT22;31365;48.858;8.530;2023-11-22T01:17:08;6.80;99.90
46336;DHT22;31365;48.858;8.530;2023-11-22T01:19:36;6.80;99.90
46336;DHT22;31365;48.858;8.530;2023-11-22T01:22:05;6.70;99.90
46336;DHT22;31365;48.858;8.530;2023-11-22T01:24:33;6.70;99.90
46336;DHT22;31365;48.858;8.530;2023-11-22T01:27:04;6.70;99.90
46336;DHT22;31365;48.858;8.530;2023-11-22T01:29:34;6.60;99.90
46336;DHT22;31365;48.858;8.530;2023-11-22T01:32:03;6.60;99.90
46336;DHT22;31365;48.858;8.530;2023-11-22T01:34:32;6.50;99.90
46336;DHT22;31365;48.858;8.530;2023-11-22T01:37:00;6.50;99.90
46336;DHT22;31365;48.858;8.530;2023-11-22T01:39:30;6.40;99.90
46336;DHT22;31365;48.858;8.530;2023-11-22T01:41:59;6.30;99.90
46336;DHT22;31365;48.858;8.530;2023-11-22T01:44:27;6.20;99.90
46336;DHT22;31365;48.858;8.530;2023-11-22T01:46:56;6.10;99.90
46336;DHT22;31365;48.858;8.530;2023-11-22T01:49:24;6.10;99.90
46336;DHT22;31365;48.858;8.530;2023-11-22T01:51:55;6.10;99.90
46336;DHT22;31365;48.858;8.530;2023-11-22T01:54:24;6.00;99.90
46336;DHT22;31365;48.858;8.530;2023-11-22T01:56:53;5.90;99.90
46336;DHT22;31365;48.858;8.530;2023-11-22T01:59:21;5.80;99.90
46336;DHT22;31365;48.858;8.530;2023-11-22T02:01:50;5.80;99.90
46336;DHT22;31365;48.858;8.530;2023-11-22T02:04:20;5.80;99.90
46336;DHT22;31365;48.858;8.530;2023-11-22T02:06:49;5.70;99.90
46336;DHT22;31365;48.858;8.530;2023-11-22T02:09:17;5.70;99.90
46336;DHT22;31365;48.858;8.530;2023-11-22T02:11:47;5.70;99.90
46336;DHT22;31365;48.858;8.530;2023-11-22T02:14:16;5.70;99.90
46336;DHT22;31365;48.858;8.530;2023-11-22T02:16:46;5.70;99.90
46336;DHT22;31365;48.858;8.530;2023-11-22T02:19:16;5.60;99.90
46336;DHT22;31365;48.858;8.530;2023-11-22T02:21:45;5.60;99.90
46336;DHT22;31365;48.858;8.530;2023-11-22T02:24:15;5.50;99.90
46336;DHT22;31365;48.858;8.530;2023-11-22T02:26:44;5.40;99.90
46336;DHT22;31365;48.858;8.530;2023-11-22T02:29:13;5.40;99.90
46336;DHT22;31365;48.858;8.530;2023-11-22T02:31:42;5.30;99.90
46336;DHT22;31365;48.858;8.530;2023-11-22T02:34:11;5.20;99.90
46336;DHT22;31365;48.858;8.530;2023-11-22T02:36:40;5.20;99.90
46336;DHT22;31365;48.858;8.530;2023-11-22T02:39:25;5.20;99.90
46336;DHT22;31365;48.858;8.530;2023-11-22T02:41:56;5.20;99.90
46336;DHT22;31365;48.858;8.530;2023-11-22T02:44:25;5.30;99.90
46336;DHT22;31365;48.858;8.530;2023-11-22T02:46:54;5.30;99.90
46336;DHT22;31365;48.858;8.530;2023-11-22T02:49:25;5.30;99.90
46336;DHT22;31365;48.858;8.530;2023-11-22T02:51:53;5.30;99.90
46336;DHT22;31365;48.858;8.530;2023-11-22T02:54:23;5.30;99.90
46336;DHT22;31365;48.858;8.530;2023-11-22T02:56:51;5.10;99.90
46336;DHT22;31365;48.858;8.530;2023-11-22T02:59:19;5.00;99.90
46336;DHT22;31365;48.858;8.530;2023-11-22T03:01:48;5.00;99.90
46336;DHT22;31365;48.858;8.530;2023-11-22T03:04:16;5.00;99.90
46336;DHT22;31365;48.858;8.530;2023-11-22T03:06:44;4.90;99.90
46336;DHT22;31365;48.858;8.530;2023-11-22T03:09:12;4.90;99.90
46336;DHT22;31365;48.858;8.530;2023-11-22T03:11:43;5.00;99.90
46336;DHT22;31365;48.858;8.530;2023-11-22T03:14:11;5.00;99.90
46336;DHT22;31365;48.858;8.530;2023-11-22T03:16:39;5.00;99.90
46336;DHT22;31365;48.858;8.530;2023-11-22T03:19:08;5.10;99.90
46336;DHT22;31365;48.858;8.530;2023-11-22T03:21:37;5.10;99.90
46336;DHT22;31365;48.858;8.530;2023-11-22T03:24:06;5.10;99.90
46336;DHT22;31365;48.858;8.530;2023-11-22T03:26:35;5.00;99.90
46336;DHT22;31365;48.858;8.530;2023-11-22T03:29:05;5.00;99.90
46336;DHT22;31365;48.858;8.530;2023-11-22T03:31:33;5.00;99.90
46336;DHT22;31365;48.858;8.530;2023-11-22T03:34:03;5.10;99.90
46336;DHT22;31365;48.858;8.530;2023-11-22T03:36:32;5.10;99.90
46336;DHT22;31365;48.858;8.530;2023-11-22T03:38:59;5.10;99.90
46336;DHT22;31365;48.858;8.530;2023-11-22T03:41:28;5.20;99.90
46336;DHT22;31365;48.858;8.530;2023-11-22T03:43:56;5.20;99.90
46336;DHT22;31365;48.858;8.530;2023-11-22T03:46:27;5.20;99.90
46336;DHT22;31365;48.858;8.530;2023-11-22T03:48:56;5.20;99.90
46336;DHT22;31365;48.858;8.530;2023-11-22T03:51:24;5.20;99.90
46336;DHT22;31365;48.858;8.530;2023-11-22T03:53:52;5.20;99.90
46336;DHT22;31365;48.858;8.530;2023-11-22T03:56:21;5.20;99.90
46336;DHT22;31365;48.858;8.530;2023-11-22T03:58:49;5.30;99.90
46336;DHT22;31365;48.858;8.530;2023-11-22T04:01:17;5.20;99.90
46336;DHT22;31365;48.858;8.530;2023-11-22T04:03:49;5.20;99.90
46336;DHT22;31365;48.858;8.530;2023-11-22T04:06:18;5.20;99.90
46336;DHT22;31365;48.858;8.530;2023-11-22T04:08:47;5.20;99.90
46336;DHT22;31365;48.858;8.530;2023-11-22T04:11:16;5.20;99.90
46336;DHT22;31365;48.858;8.530;2023-11-22T04:13:45;5.20;99.90
46336;DHT22;31365;48.858;8.530;2023-11-22T04:16:13;5.10;99.90
46336;DHT22;31365;48.858;8.530;2023-11-22T04:18:42;5.20;99.90
46336;DHT22;31365;48.858;8.530;2023-11-22T04:21:11;5.20;99.90
46336;DHT22;31365;48.858;8.530;2023-11-22T04:23:40;5.10;99.90
46336;DHT22;31365;48.858;8.530;2023-11-22T04:26:09;5.10;99.90
46336;DHT22;31365;48.858;8.530;2023-11-22T04:28:37;5.10;99.90
46336;DHT22;31365;48.858;8.530;2023-11-22T04:31:05;5.10;99.90
46336;DHT22;31365;48.858;8.530;2023-11-22T04:33:35;5.10;99.90
46336;DHT22;31365;48.858;8.530;2023-11-22T04:36:05;5.10;99.90
46336;DHT22;31365;48.858;8.530;2023-11-22T04:38:35;5.10;99.90
46336;DHT22;31365;48.858;8.530;2023-11-22T04:41:03;5.10;99.90
46336;DHT22;31365;48.858;8.530;2023-11-22T04:43:31;5.10;99.90
46336;DHT22;31365;48.858;8.530;2023-11-22T04:45:59;5.10;99.90
46336;DHT22;31365;48.858;8.530;2023-11-22T04:48:28;5.10;99.90
46336;DHT22;31365;48.858;8.530;2023-11-22T04:50:56;5.10;99.90
46336;DHT22;31365;48.858;8.530;2023-11-22T04:53:24;5.10;99.90
46336;DHT22;31365;48.858;8.530;2023-11-22T04:55:55;5.10;99.90
46336;DHT22;31365;48.858;8.530;2023-11-22T04:58:23;5.00;99.90
46336;DHT22;31365;48.858;8.530;2023-11-22T05:00:51;5.10;99.90
46336;DHT22;31365;48.858;8.530;2023-11-22T05:03:20;5.10;99.90
46336;DHT22;31365;48.858;8.530;2023-11-22T05:05:48;5.10;99.90
46336;DHT22;31365;48.858;8.530;2023-11-22T05:08:16;5.10;99.90
46336;DHT22;31365;48.858;8.530;2023-11-22T05:10:44;5.10;99.90
46336;DHT22;31365;48.858;8.530;2023-11-22T05:13:13;5.10;99.90
46336;DHT22;31365;48.858;8.530;2023-11-22T05:15:41;5.00;99.90
46336;DHT22;31365;48.858;8.530;2023-11-22T05:18:10;5.10;99.90
46336;DHT22;31365;48.858;8.530;2023-11-22T05:20:38;5.00;99.90
46336;DHT22;31365;48.858;8.530;2023-11-22T05:23:06;5.00;99.90
46336;DHT22;31365;48.858;8.530;2023-11-22T05:25:34;5.00;99.90
46336;DHT22;31365;48.858;8.530;2023-11-22T05:28:03;5.10;99.90
46336;DHT22;31365;48.858;8.530;2023-11-22T05:30:32;5.00;99.90
46336;DHT22;31365;48.858;8.530;2023-11-22T05:33:01;5.00;99.90
46336;DHT22;31365;48.858;8.530;2023-11-22T05:35:29;5.00;99.90
46336;DHT22;31365;48.858;8.530;2023-11-22T05:37:57;5.00;99.90
46336;DHT22;31365;48.858;8.530;2023-11-22T05:40:25;5.00;99.90
46336;DHT22;31365;48.858;8.530;2023-11-22T05:42:54;5.00;99.90
46336;DHT22;31365;48.858;8.530;2023-11-22T05:45:22;5.00;99.90
46336;DHT22;31365;48.858;8.530;2023-11-22T05:47:53;5.00;99.90
46336;DHT22;31365;48.858;8.530;2023-11-22T05:50:21;5.00;99.90
46336;DHT22;31365;48.858;8.530;2023-11-22T05:52:49;4.90;99.90
46336;DHT22;31365;48.858;8.530;2023-11-22T05:55:18;4.80;99.90
46336;DHT22;31365;48.858;8.530;2023-11-22T05:57:46;4.80;99.90
46336;DHT22;31365;48.858;8.530;2023-11-22T06:00:14;4.80;99.90
46336;DHT22;31365;48.858;8.530;2023-11-22T06:02:42;4.70;99.90
46336;DHT22;31365;48.858;8.530;2023-11-22T06:05:12;4.70;99.90
46336;DHT22;31365;48.858;8.530;2023-11-22T06:07:40;4.60;99.90
46336;DHT22;31365;48.858;8.530;2023-11-22T06:10:08;4.50;99.90
46336;DHT22;31365;48.858;8.530;2023-11-22T06:12:36;4.50;99.90
46336;DHT22;31365;48.858;8.530;2023-11-22T06:15:05;4.50;99.90
46336;DHT22;31365;48.858;8.530;2023-11-22T06:17:33;4.50;99.90
46336;DHT22;31365;48.858;8.530;2023-11-22T06:20:02;4.40;99.90
46336;DHT22;31365;48.858;8.530;2023-11-22T06:22:31;4.30;99.90
46336;DHT22;31365;48.858;8.530;2023-11-22T06:25:00;4.30;99.90
46336;DHT22;31365;48.858;8.530;2023-11-22T06:27:28;4.30;99.90
46336;DHT22;31365;48.858;8.530;2023-11-22T06:29:56;4.20;99.90
46336;DHT22;31365;48.858;8.530;2023-11-22T06:32:24;4.20;99.90
46336;DHT22;31365;48.858;8.530;2023-11-22T06:34:53;4.20;99.90
46336;DHT22;31365;48.858;8.530;2023-11-22T06:37:21;4.20;99.90
46336;DHT22;31365;48.858;8.530;2023-11-22T06:39:50;4.10;99.90
46336;DHT22;31365;48.858;8.530;2023-11-22T06:42:19;4.10;99.90
46336;DHT22;31365;48.858;8.530;2023-11-22T06:44:47;4.20;99.90
46336;DHT22;31365;48.858;8.530;2023-11-22T06:47:17;4.10;99.90
46336;DHT22;31365;48.858;8.530;2023-11-22T06:49:45;4.10;99.90
46336;DHT22;31365;48.858;8.530;2023-11-22T06:52:14;4.10;99.90
46336;DHT22;31365;48.858;8.530;2023-11-22T06:54:43;4.10;99.90
46336;DHT22;31365;48.858;8.530;2023-11-22T06:57:13;4.10;99.90
46336;DHT22;31365;48.858;8.530;2023-11-22T06:59:41;4.10;99.90
46336;DHT22;31365;48.858;8.530;2023-11-22T07:02:10;4.10;99.90
46336;DHT22;31365;48.858;8.530;2023-11-22T07:04:38;4.10;99.90
46336;DHT22;31365;48.858;8.530;2023-11-22T07:07:06;4.10;99.90
46336;DHT22;31365;48.858;8.530;2023-11-22T07:09:41;4.10;99.90
46336;DHT22;31365;48.858;8.530;2023-11-22T07:12:10;4.10;99.90
46336;DHT22;31365;48.858;8.530;2023-11-22T07:14:39;4.00;99.90
46336;DHT22;31365;48.858;8.530;2023-11-22T07:17:10;4.00;99.90
46336;DHT22;31365;48.858;8.530;2023-11-22T07:19:39;4.00;99.90
46336;DHT22;31365;48.858;8.530;2023-11-22T07:22:13;4.00;99.90
46336;DHT22;31365;48.858;8.530;2023-11-22T07:24:44;3.90;99.90
46336;DHT22;31365;48.858;8.530;2023-11-22T07:27:13;3.90;99.90
46336;DHT22;31365;48.858;8.530;2023-11-22T07:29:42;3.80;99.90
46336;DHT22;31365;48.858;8.530;2023-11-22T07:32:11;3.80;99.90
46336;DHT22;31365;48.858;8.530;2023-11-22T07:34:40;3.80;99.90
46336;DHT22;31365;48.858;8.530;2023-11-22T07:37:08;3.80;99.90
46336;DHT22;31365;48.858;8.530;2023-11-22T07:39:36;3.80;99.90
46336;DHT22;31365;48.858;8.530;2023-11-22T07:42:06;3.80;99.90
46336;DHT22;31365;48.858;8.530;2023-11-22T07:44:35;3.80;99.90
46336;DHT22;31365;48.858;8.530;2023-11-22T07:47:06;3.80;99.90
46336;DHT22;31365;48.858;8.530;2023-11-22T07:49:38;3.90;99.90
46336;DHT22;31365;48.858;8.530;2023-11-22T07:52:07;3.80;99.90
46336;DHT22;31365;48.858;8.530;2023-11-22T07:54:40;3.90;99.90
46336;DHT22;31365;48.858;8.530;2023-11-22T07:57:08;3.80;99.90
46336;DHT22;31365;48.858;8.530;2023-11-22T07:59:36;3.80;99.90
46336;DHT22;31365;48.858;8.530;2023-11-22T08:02:06;3.70;99.90
46336;DHT22;31365;48.858;8.530;2023-11-22T08:04:38;3.70;99.90
46336;DHT22;31365;48.858;8.530;2023-11-22T08:07:07;3.70;99.90
46336;DHT22;31365;48.858;8.530;2023-11-22T08:09:38;3.70;99.90
46336;DHT22;31365;48.858;8.530;2023-11-22T08:12:06;3.70;99.90
46336;DHT22;31365;48.858;8.530;2023-11-22T08:14:34;3.80;99.90
46336;DHT22;31365;48.858;8.530;2023-11-22T08:17:03;3.80;99.90
46336;DHT22;31365;48.858;8.530;2023-11-22T08:19:33;3.90;99.90
46336;DHT22;31365;48.858;8.530;2023-11-22T08:22:02;3.90;99.90
46336;DHT22;31365;48.858;8.530;2023-11-22T08:24:30;3.90;99.90
46336;DHT22;31365;48.858;8.530;2023-11-22T08:26:58;3.80;99.90
46336;DHT22;31365;48.858;8.530;2023-11-22T08:29:26;3.80;99.90
46336;DHT22;31365;48.858;8.530;2023-11-22T08:31:54;3.70;99.90
46336;DHT22;31365;48.858;8.530;2023-11-22T08:34:23;3.70;99.90
46336;DHT22;31365;48.858;8.530;2023-11-22T08:36:53;3.80;99.90
46336;DHT22;31365;48.858;8.530;2023-11-22T08:39:21;3.90;99.90
46336;DHT22;31365;48.858;8.530;2023-11-22T08:41:50;4.00;99.90
46336;DHT22;31365;48.858;8.530;2023-11-22T08:44:18;4.00;99.90
46336;DHT22;31365;48.858;8.530;2023-11-22T08:46:46;4.00;99.90
46336;DHT22;31365;48.858;8.530;2023-11-22T08:49:15;4.00;99.90
46336;DHT22;31365;48.858;8.530;2023-11-22T08:51:43;4.10;99.90
46336;DHT22;31365;48.858;8.530;2023-11-22T08:54:14;4.10;99.90
46336;DHT22;31365;48.858;8.530;2023-11-22T08:56:45;4.10;99.90
46336;DHT22;31365;48.858;8.530;2023-11-22T08:59:13;4.10;99.90
46336;DHT22;31365;48.858;8.530;2023-11-22T09:01:41;4.10;99.90
46336;DHT22;31365;48.858;8.530;2023-11-22T09:04:12;4.10;99.90
46336;DHT22;31365;48.858;8.530;2023-11-22T09:06:40;4.10;99.90
46336;DHT22;31365;48.858;8.530;2023-11-22T09:09:08;4.10;99.90
46336;DHT22;31365;48.858;8.530;2023-11-22T09:11:37;4.10;99.90
46336;DHT22;31365;48.858;8.530;2023-11-22T09:14:06;4.10;99.90
46336;DHT22;31365;48.858;8.530;2023-11-22T09:16:37;4.10;99.90
46336;DHT22;31365;48.858;8.530;2023-11-22T09:19:05;4.20;99.90
46336;DHT22;31365;48.858;8.530;2023-11-22T09:21:34;4.10;99.90
46336;DHT22;31365;48.858;8.530;2023-11-22T09:24:02;4.20;99.90
46336;DHT22;31365;48.858;8.530;2023-11-22T09:26:32;4.20;99.90
46336;DHT22;31365;48.858;8.530;2023-11-22T09:29:02;4.30;99.90
46336;DHT22;31365;48.858;8.530;2023-11-22T09:31:31;4.20;99.90
46336;DHT22;31365;48.858;8.530;2023-11-22T09:33:59;4.20;99.90
46336;DHT22;31365;48.858;8.530;2023-11-22T09:36:27;4.20;99.90
46336;DHT22;31365;48.858;8.530;2023-11-22T09:38:59;4.30;99.90
46336;DHT22;31365;48.858;8.530;2023-11-22T09:41:27;4.30;99.90
46336;DHT22;31365;48.858;8.530;2023-11-22T09:43:55;4.30;99.90
46336;DHT22;31365;48.858;8.530;2023-11-22T09:46:26;4.30;99.90
46336;DHT22;31365;48.858;8.530;2023-11-22T09:48:57;4.30;99.90
46336;DHT22;31365;48.858;8.530;2023-11-22T09:51:27;4.30;99.90
46336;DHT22;31365;48.858;8.530;2023-11-22T09:53:57;4.30;99.90
46336;DHT22;31365;48.858;8.530;2023-11-22T09:56:27;4.40;99.90
46336;DHT22;31365;48.858;8.530;2023-11-22T09:58:58;4.50;99.90
46336;DHT22;31365;48.858;8.530;2023-11-22T10:01:29;4.40;99.90
46336;DHT22;31365;48.858;8.530;2023-11-22T10:04:00;4.40;99.90
46336;DHT22;31365;48.858;8.530;2023-11-22T10:06:29;4.40;99.90
46336;DHT22;31365;48.858;8.530;2023-11-22T10:09:00;4.50;99.90
46336;DHT22;31365;48.858;8.530;2023-11-22T10:11:31;4.60;99.90
46336;DHT22;31365;48.858;8.530;2023-11-22T10:14:00;4.60;99.90
46336;DHT22;31365;48.858;8.530;2023-11-22T10:16:29;4.70;99.90
46336;DHT22;31365;48.858;8.530;2023-11-22T10:18:57;4.80;99.90
46336;DHT22;31365;48.858;8.530;2023-11-22T10:21:27;4.90;99.90
46336;DHT22;31365;48.858;8.530;2023-11-22T10:23:59;4.90;99.90
46336;DHT22;31365;48.858;8.530;2023-11-22T10:26:29;5.00;99.90
46336;DHT22;31365;48.858;8.530;2023-11-22T10:28:58;5.10;99.90
46336;DHT22;31365;48.858;8.530;2023-11-22T10:31:26;5.10;99.90
46336;DHT22;31365;48.858;8.530;2023-11-22T10:33:56;5.20;99.90
46336;DHT22;31365;48.858;8.530;2023-11-22T10:36:25;5.30;99.90
46336;DHT22;31365;48.858;8.530;2023-11-22T10:38:54;5.30;99.90
46336;DHT22;31365;48.858;8.530;2023-11-22T10:41:23;5.30;99.90
46336;DHT22;31365;48.858;8.530;2023-11-22T10:43:52;5.40;99.90
46336;DHT22;31365;48.858;8.530;2023-11-22T10:46:21;5.30;99.90
46336;DHT22;31365;48.858;8.530;2023-11-22T10:48:56;5.30;99.90
46336;DHT22;31365;48.858;8.530;2023-11-22T10:51:27;5.30;99.90
46336;DHT22;31365;48.858;8.530;2023-11-22T10:53:58;5.30;99.90
46336;DHT22;31365;48.858;8.530;2023-11-22T10:56:28;5.30;99.90
46336;DHT22;31365;48.858;8.530;2023-11-22T10:59:02;5.20;99.90
46336;DHT22;31365;48.858;8.530;2023-11-22T11:01:31;5.20;99.90
46336;DHT22;31365;48.858;8.530;2023-11-22T11:04:03;5.10;99.90
46336;DHT22;31365;48.858;8.530;2023-11-22T11:06:37;5.10;99.90
46336;DHT22;31365;48.858;8.530;2023-11-22T11:09:06;5.10;99.90
46336;DHT22;31365;48.858;8.530;2023-11-22T11:11:37;5.10;99.90
46336;DHT22;31365;48.858;8.530;2023-11-22T11:14:07;5.10;99.90
46336;DHT22;31365;48.858;8.530;2023-11-22T11:16:39;5.00;99.90
46336;DHT22;31365;48.858;8.530;2023-11-22T11:19:10;5.00;99.90
46336;DHT22;31365;48.858;8.530;2023-11-22T11:21:39;5.00;99.90
46336;DHT22;31365;48.858;8.530;2023-11-22T11:24:07;5.00;99.90
46336;DHT22;31365;48.858;8.530;2023-11-22T11:26:35;5.10;99.90
46336;DHT22;31365;48.858;8.530;2023-11-22T11:29:03;5.10;99.90
46336;DHT22;31365;48.858;8.530;2023-11-22T11:31:33;5.10;99.90
46336;DHT22;31365;48.858;8.530;2023-11-22T11:34:06;5.10;99.90
46336;DHT22;31365;48.858;8.530;2023-11-22T11:36:37;5.20;99.90
46336;DHT22;31365;48.858;8.530;2023-11-22T11:39:07;5.10;99.90
46336;DHT22;31365;48.858;8.530;2023-11-22T11:41:38;5.10;99.90
46336;DHT22;31365;48.858;8.530;2023-11-22T11:44:07;5.20;99.90
46336;DHT22;31365;48.858;8.530;2023-11-22T11:46:38;5.10;99.90
46336;DHT22;31365;48.858;8.530;2023-11-22T11:49:07;5.00;99.90
46336;DHT22;31365;48.858;8.530;2023-11-22T11:51:37;5.00;99.90
46336;DHT22;31365;48.858;8.530;2023-11-22T11:54:05;5.10;99.90
46336;DHT22;31365;48.858;8.530;2023-11-22T11:56:36;5.10;99.90
46336;DHT22;31365;48.858;8.530;2023-11-22T11:59:05;5.10;99.90
46336;DHT22;31365;48.858;8.530;2023-11-22T12:01:33;5.00;99.90
46336;DHT22;31365;48.858;8.530;2023-11-22T12:04:02;4.90;99.90
46336;DHT22;31365;48.858;8.530;2023-11-22T12:06:31;4.90;99.90
46336;DHT22;31365;48.858;8.530;2023-11-22T12:09:04;4.90;99.90
46336;DHT22;31365;48.858;8.530;2023-11-22T12:11:32;4.90;99.90
46336;DHT22;31365;48.858;8.530;2023-11-22T12:14:01;4.90;99.90
46336;DHT22;31365;48.858;8.530;2023-11-22T12:16:30;4.90;99.90
46336;DHT22;31365;48.858;8.530;2023-11-22T12:19:00;4.90;99.90
46336;DHT22;31365;48.858;8.530;2023-11-22T12:21:30;4.90;99.90
46336;DHT22;31365;48.858;8.530;2023-11-22T12:23:58;4.80;99.90
46336;DHT22;31365;48.858;8.530;2023-11-22T12:26:28;4.70;99.90
46336;DHT22;31365;48.858;8.530;2023-11-22T12:28:58;4.60;99.90
46336;DHT22;31365;48.858;8.530;2023-11-22T12:31:32;4.70;99.90
46336;DHT22;31365;48.858;8.530;2023-11-22T12:34:03;4.60;99.90
46336;DHT22;31365;48.858;8.530;2023-11-22T12:36:33;4.70;99.90
46336;DHT22;31365;48.858;8.530;2023-11-22T12:39:06;4.70;99.90
46336;DHT22;31365;48.858;8.530;2023-11-22T12:41:46;4.70;99.90
46336;DHT22;31365;48.858;8.530;2023-11-22T12:44:27;4.80;99.90
46336;DHT22;31365;48.858;8.530;2023-11-22T12:46:59;4.80;99.90
46336;DHT22;31365;48.858;8.530;2023-11-22T12:49:31;4.70;99.90
46336;DHT22;31365;48.858;8.530;2023-11-22T12:51:59;4.70;99.90
46336;DHT22;31365;48.858;8.530;2023-11-22T12:54:27;4.80;99.90
46336;DHT22;31365;48.858;8.530;2023-11-22T12:56:57;4.80;99.90
46336;DHT22;31365;48.858;8.530;2023-11-22T12:59:26;4.90;99.90
46336;DHT22;31365;48.858;8.530;2023-11-22T13:01:58;4.80;99.90
46336;DHT22;31365;48.858;8.530;2023-11-22T13:04:28;4.90;99.90
46336;DHT22;31365;48.858;8.530;2023-11-22T13:06:58;4.90;99.90
46336;DHT22;31365;48.858;8.530;2023-11-22T13:09:27;4.90;99.90
46336;DHT22;31365;48.858;8.530;2023-11-22T13:12:00;4.80;99.90
46336;DHT22;31365;48.858;8.530;2023-11-22T13:14:28;4.80;99.90
46336;DHT22;31365;48.858;8.530;2023-11-22T13:16:59;4.80;99.90
46336;DHT22;31365;48.858;8.530;2023-11-22T13:19:27;4.90;99.90
46336;DHT22;31365;48.858;8.530;2023-11-22T13:21:55;5.00;99.90
46336;DHT22;31365;48.858;8.530;2023-11-22T13:24:23;5.00;99.90
46336;DHT22;31365;48.858;8.530;2023-11-22T13:26:51;5.00;99.90
46336;DHT22;31365;48.858;8.530;2023-11-22T13:29:20;4.90;99.90
46336;DHT22;31365;48.858;8.530;2023-11-22T13:31:48;4.90;99.90
46336;DHT22;31365;48.858;8.530;2023-11-22T13:34:18;4.90;99.90
46336;DHT22;31365;48.858;8.530;2023-11-22T13:36:46;4.90;99.90
46336;DHT22;31365;48.858;8.530;2023-11-22T13:39:15;4.90;99.90
46336;DHT22;31365;48.858;8.530;2023-11-22T13:41:43;4.80;99.90
46336;DHT22;31365;48.858;8.530;2023-11-22T13:44:11;4.80;99.90
46336;DHT22;31365;48.858;8.530;2023-11-22T13:46:41;4.80;99.90
46336;DHT22;31365;48.858;8.530;2023-11-22T13:49:09;4.90;99.90
46336;DHT22;31365;48.858;8.530;2023-11-22T13:51:37;4.90;99.90
46336;DHT22;31365;48.858;8.530;2023-11-22T13:54:06;4.90;99.90
46336;DHT22;31365;48.858;8.530;2023-11-22T13:56:34;4.80;99.90
46336;DHT22;31365;48.858;8.530;2023-11-22T13:59:02;4.80;99.90
46336;DHT22;31365;48.858;8.530;2023-11-22T14:01:30;4.80;99.90
46336;DHT22;31365;48.858;8.530;2023-11-22T14:04:01;4.90;99.90
46336;DHT22;31365;48.858;8.530;2023-11-22T14:06:30;4.90;99.90
46336;DHT22;31365;48.858;8.530;2023-11-22T14:08:58;4.90;99.90
46336;DHT22;31365;48.858;8.530;2023-11-22T14:11:26;4.90;99.90
46336;DHT22;31365;48.858;8.530;2023-11-22T14:13:54;4.90;99.90
46336;DHT22;31365;48.858;8.530;2023-11-22T14:16:24;4.90;99.90
46336;DHT22;31365;48.858;8.530;2023-11-22T14:18:53;4.90;99.90
46336;DHT22;31365;48.858;8.530;2023-11-22T14:21:22;4.90;99.90
46336;DHT22;31365;48.858;8.530;2023-11-22T14:23:51;4.80;99.90
46336;DHT22;31365;48.858;8.530;2023-11-22T14:26:22;4.80;99.90
46336;DHT22;31365;48.858;8.530;2023-11-22T14:28:51;4.70;99.90
46336;DHT22;31365;48.858;8.530;2023-11-22T14:31:19;4.70;99.90
46336;DHT22;31365;48.858;8.530;2023-11-22T14:33:48;4.70;99.90
46336;DHT22;31365;48.858;8.530;2023-11-22T14:36:17;4.60;99.90
46336;DHT22;31365;48.858;8.530;2023-11-22T14:38:46;4.60;99.90
46336;DHT22;31365;48.858;8.530;2023-11-22T14:41:21;4.70;99.90
46336;DHT22;31365;48.858;8.530;2023-11-22T14:43:49;4.60;99.90
46336;DHT22;31365;48.858;8.530;2023-11-22T14:46:18;4.60;99.90
46336;DHT22;31365;48.858;8.530;2023-11-22T14:48:46;4.60;99.90
46336;DHT22;31365;48.858;8.530;2023-11-22T14:51:16;4.60;99.90
46336;DHT22;31365;48.858;8.530;2023-11-22T14:53:46;4.60;99.90
46336;DHT22;31365;48.858;8.530;2023-11-22T14:56:15;4.50;99.90
46336;DHT22;31365;48.858;8.530;2023-11-22T14:58:45;4.50;99.90
46336;DHT22;31365;48.858;8.530;2023-11-22T15:01:20;4.40;99.90
46336;DHT22;31365;48.858;8.530;2023-11-22T15:03:50;4.40;99.90
46336;DHT22;31365;48.858;8.530;2023-11-22T15:06:20;4.40;99.90
46336;DHT22;31365;48.858;8.530;2023-11-22T15:08:50;4.40;99.90
46336;DHT22;31365;48.858;8.530;2023-11-22T15:11:19;4.40;99.90
46336;DHT22;31365;48.858;8.530;2023-11-22T15:13:47;4.40;99.90
46336;DHT22;31365;48.858;8.530;2023-11-22T15:16:16;4.40;99.90
46336;DHT22;31365;48.858;8.530;2023-11-22T15:18:45;4.40;99.90
46336;DHT22;31365;48.858;8.530;2023-11-22T15:21:16;4.40;99.90
46336;DHT22;31365;48.858;8.530;2023-11-22T15:23:44;4.40;99.90
46336;DHT22;31365;48.858;8.530;2023-11-22T15:26:17;4.20;99.90
46336;DHT22;31365;48.858;8.530;2023-11-22T15:28:45;4.10;99.90
46336;DHT22;31365;48.858;8.530;2023-11-22T15:31:14;4.10;99.90
46336;DHT22;31365;48.858;8.530;2023-11-22T15:33:43;4.20;99.90
46336;DHT22;31365;48.858;8.530;2023-11-22T15:36:12;4.30;99.90
46336;DHT22;31365;48.858;8.530;2023-11-22T15:38:40;4.30;99.90
46336;DHT22;31365;48.858;8.530;2023-11-22T15:41:08;4.30;99.90
46336;DHT22;31365;48.858;8.530;2023-11-22T15:43:44;4.30;99.90
46336;DHT22;31365;48.858;8.530;2023-11-22T15:46:13;4.30;99.90
46336;DHT22;31365;48.858;8.530;2023-11-22T15:48:44;4.30;99.90
46336;DHT22;31365;48.858;8.530;2023-11-22T15:51:14;4.40;99.90
46336;DHT22;31365;48.858;8.530;2023-11-22T15:53:43;4.30;99.90
46336;DHT22;31365;48.858;8.530;2023-11-22T15:56:11;4.30;99.90